METAR Data
IDs: Format: Raw Decoded Include TAF

Data at: 2229 UTC 25 Oct 2021

KDZB 252215Z AUTO 15007KT 10SM CLR 32/20 A2991 RMK AO2 T03190195
KDZB 252155Z AUTO 15007KT 10SM CLR 32/19 A2991 RMK AO2 T03200193
KDZB 252135Z AUTO 17007KT 10SM CLR 32/19 A2992 RMK AO2 T03220194
KDZB 252115Z AUTO 15010KT 10SM CLR 32/19 A2991 RMK AO2 T03210191
KDZB 252055Z AUTO 16008KT 10SM CLR 32/20 A2992 RMK AO2 T03200197
KDZB 252035Z AUTO 15006KT 10SM CLR 32/20 A2992 RMK AO2 T03200200
KDZB 252015Z AUTO 13008KT 10SM CLR 32/20 A2993 RMK AO2 T03200198
KDZB 251955Z AUTO 17006KT 10SM CLR 32/20 A2993 RMK AO2 T03150201
KDZB 251935Z AUTO 16006KT 10SM CLR 32/21 A2994 RMK AO2 T03150209
KDZB 251915Z AUTO 15004KT 10SM CLR 31/21 A2995 RMK AO2 T03140208
KDZB 251855Z AUTO 17005KT 10SM CLR 31/21 A2997 RMK AO2 T03080211
KDZB 251835Z AUTO 16005KT 10SM CLR 30/21 A2998 RMK AO2 T03020214
KDZB 251815Z AUTO 17005KT 10SM CLR 30/21 A2999 RMK AO2 T02980214
KDZB 251755Z AUTO 16005KT 10SM CLR 29/21 A2999 RMK AO2 T02910213 10292 20181
KDZB 251735Z AUTO 15003KT 10SM CLR 29/22 A3000 RMK AO2 T02860216
KDZB 251715Z AUTO 16005KT 10SM CLR 29/22 A3000 RMK AO2 T02850216
KDZB 251655Z AUTO 15004KT 10SM CLR 28/22 A3000 RMK AO2 T02810219
KDZB 251635Z AUTO 13003KT 10SM CLR 28/22 A3000 RMK AO2 T02790220
KDZB 251615Z AUTO 12003KT 10SM SCT014 27/22 A3000 RMK AO2 T02710217
KDZB 251555Z AUTO 00000KT 10SM SCT012 27/22 A3000 RMK AO2 T02650215
KDZB 251535Z AUTO 00000KT 10SM BKN012 26/22 A3000 RMK AO2 T02590215
KDZB 251515Z AUTO 00000KT 10SM OVC010 25/22 A3001 RMK AO2 T02480216
KDZB 251455Z AUTO 00000KT 10SM BKN008 25/22 A3000 RMK AO2 T02460216
KDZB 251435Z AUTO 00000KT 10SM CLR 24/22 A3000 RMK AO2 T02390221
KDZB 251415Z AUTO 00000KT 10SM CLR 23/22 A2999 RMK AO2 T02260221
KDZB 251355Z AUTO 00000KT 10SM CLR 21/21 A2999 RMK AO2 T02120208
KDZB 251335Z AUTO 00000KT 10SM CLR 19/19 A2998 RMK AO2 T01920188
KDZB 251315Z AUTO 00000KT 10SM CLR 19/18 A2998 RMK AO2 T01850180
KDZB 251255Z AUTO 00000KT 10SM CLR 18/18 A2997 RMK AO2 T01840180
KDZB 251235Z AUTO 00000KT 10SM CLR 18/18 A2997 RMK AO2 T01810177
KDZB 251215Z AUTO 00000KT 7SM SCT011 19/18 A2996 RMK AO2 T01890184
KDZB 251155Z AUTO 00000KT 10SM OVC009 20/19 A2996 RMK AO2 T01980193 10232 20189
KDZB 251135Z AUTO 00000KT 10SM OVC009 19/19 A2995 RMK AO2 T01920187
KDZB 251115Z AUTO 00000KT 10SM OVC011 19/18 A2994 RMK AO2 T01890184
KDZB 251055Z AUTO 00000KT 10SM BKN011 19/19 A2994 RMK AO2 T01940189
KDZB 251035Z AUTO 00000KT 10SM SCT013 19/19 A2993 RMK AO2 T01940188
KDZB 251015Z AUTO 00000KT 10SM CLR 20/19 A2993 RMK AO2 T01980192
KDZB 250955Z AUTO 00000KT 10SM CLR 20/19 A2993 RMK AO2 T01990193
KDZB 250935Z AUTO 00000KT 10SM CLR 20/20 A2993 RMK AO2 T02020195
KDZB 250915Z AUTO 00000KT 10SM CLR 20/19 A2993 RMK AO2 T02030194
KDZB 250855Z AUTO 00000KT 10SM CLR 21/20 A2993 RMK AO2 T02130197
KDZB 250835Z AUTO 00000KT 10SM CLR 21/20 A2993 RMK AO2 T02130201
KDZB 250815Z AUTO 00000KT 10SM CLR 21/20 A2993 RMK AO2 T02070197
KDZB 250755Z AUTO 00000KT 10SM CLR 20/19 A2993 RMK AO2 T01980187
KDZB 250735Z AUTO 00000KT 10SM CLR 20/19 A2993 RMK AO2 T02010189
KDZB 250715Z AUTO 00000KT 10SM CLR 21/19 A2993 RMK AO2 T02060192
KDZB 250655Z AUTO 00000KT 10SM CLR 21/19 A2993 RMK AO2 T02120191
KDZB 250635Z AUTO 00000KT 10SM CLR 22/20 A2993 RMK AO2 T02210196
KDZB 250615Z AUTO 00000KT 10SM CLR 22/19 A2993 RMK AO2 T02200192
KDZB 250555Z AUTO 00000KT 10SM CLR 23/20 A2992 RMK AO2 T02320195 10266 20232 403070205
KDZB 250535Z AUTO 20003KT 10SM CLR 24/20 A2992 RMK AO2 T02370196
KDZB 250515Z AUTO 18004KT 10SM CLR 24/20 A2992 RMK AO2 T02390196
KDZB 250455Z AUTO 18005KT 10SM CLR 24/20 A2991 RMK AO2 T02380196
KDZB 250435Z AUTO 17004KT 10SM CLR 24/20 A2991 RMK AO2 T02360195
KDZB 250415Z AUTO 18005KT 10SM CLR 24/20 A2991 RMK AO2 T02350195
KDZB 250355Z AUTO 18005KT 10SM CLR 23/20 A2990 RMK AO2 T02340195
KDZB 250335Z AUTO 18006KT 10SM CLR 23/20 A2990 RMK AO2 T02320195
KDZB 250315Z AUTO 18004KT 10SM CLR 23/20 A2989 RMK AO2 T02330195
KDZB 250255Z AUTO 17004KT 10SM CLR 24/20 A2988 RMK AO2 T02370196
KDZB 250235Z AUTO 17005KT 10SM CLR 24/20 A2988 RMK AO2 T02400196
KDZB 250215Z AUTO 17005KT 10SM CLR 24/20 A2986 RMK AO2 T02430196
KDZB 250155Z AUTO 17004KT 10SM CLR 25/20 A2986 RMK AO2 T02450196
KDZB 250135Z AUTO 18005KT 10SM CLR 25/20 A2986 RMK AO2 T02450196
KDZB 250115Z AUTO 18006KT 10SM CLR 25/20 A2985 RMK AO2 T02470196
KDZB 250055Z AUTO 17003KT 10SM CLR 25/20 A2985 RMK AO2 T02480195
KDZB 250035Z AUTO 17006KT 10SM CLR 25/20 A2984 RMK AO2 T02520195
KDZB 250015Z AUTO 17004KT 10SM CLR 26/20 A2985 RMK AO2 T02560195
KDZB 242355Z AUTO 18003KT 10SM CLR 27/20 A2984 RMK AO2 T02670195 10307 20267
KDZB 242335Z AUTO 19003KT 10SM CLR 28/20 A2984 RMK AO2 T02770195
KDZB 242315Z AUTO 17005KT 10SM CLR 29/19 A2983 RMK AO2 T02860194
KDZB 242255Z AUTO 20006KT 10SM CLR 29/19 A2983 RMK AO2 T02910192
KDZB 242235Z AUTO 20006KT 10SM SCT041 30/19 A2983 RMK AO2 T02950192
KDZB 242215Z AUTO 20004KT 10SM BKN041 30/19 A2983 RMK AO2 T03000192
KDZB 242155Z AUTO 20009KT 10SM SCT043 30/19 A2983 RMK AO2 T02980192
KDZB 242135Z AUTO 19006KT 10SM BKN043 30/19 A2983 RMK AO2 T02960191
KDZB 242115Z AUTO 17007KT 10SM BKN043 30/19 A2982 RMK AO2 T02990192
KDZB 242055Z AUTO 19008KT 10SM BKN043 30/19 A2982 RMK AO2 T02970191
KDZB 242035Z AUTO 18009KT 10SM BKN041 29/19 A2982 RMK AO2 T02930189
KDZB 242015Z AUTO 17009KT 150V210 10SM BKN041 BKN048 30/19 A2982 RMK AO2 T03020192
KDZB 241955Z AUTO 18007KT 10SM SCT039 SCT046 30/19 A2983 RMK AO2 T03020191
KDZB 241935Z AUTO 17008G14KT 10SM CLR 30/19 A2983 RMK AO2 T03000188
KDZB 241915Z AUTO 17009G15KT 10SM CLR 30/19 A2983 RMK AO2 T02970188
KDZB 241855Z AUTO 17006G15KT 10SM CLR 29/18 A2984 RMK AO2 T02930184
KDZB 241835Z AUTO 19010G15KT 10SM SCT033 29/19 A2985 RMK AO2 T02910188
KDZB 241815Z AUTO 20007KT 10SM BKN033 28/19 A2986 RMK AO2 T02840194
KDZB 241755Z AUTO 22006KT 10SM OVC033 27/19 A2988 RMK AO2 T02710192 10285 20219
KDZB 241735Z AUTO 22007G17KT 10SM SCT029 BKN035 28/19 A2988 RMK AO2 T02810190
KDZB 241715Z AUTO 22008G14KT 180V240 10SM SCT037 SCT043 28/20 A2989 RMK AO2 T02770195
KDZB 241655Z AUTO 25004KT 10SM SCT025 SCT031 BKN041 27/20 A2991 RMK AO2 T02660195
KDZB 241635Z AUTO 00000KT 10SM SCT022 BKN029 OVC037 26/20 A2991 RMK AO2 T02550199
KDZB 241615Z AUTO 22003KT 10SM BKN024 OVC031 25/20 A2992 RMK AO2 T02540200
KDZB 241555Z AUTO 18005KT 10SM SCT020 OVC028 25/20 A2991 RMK AO2 T02500200
KDZB 241535Z AUTO 18006KT 10SM SCT014 OVC030 25/20 A2991 RMK AO2 T02460201
KDZB 241515Z AUTO 16003KT 10SM SCT014 OVC030 24/20 A2990 RMK AO2 T02420201
KDZB 241455Z AUTO 17003KT 10SM SCT014 OVC030 24/20 A2990 RMK AO2 T02400203
KDZB 241435Z AUTO 18005KT 10SM SCT012 OVC030 24/21 A2989 RMK AO2 T02360205
KDZB 241415Z AUTO 15003KT 10SM SCT016 SCT021 OVC030 23/20 A2988 RMK AO2 T02280204
KDZB 241355Z AUTO 17003KT 10SM SCT012 BKN016 OVC030 22/21 A2988 RMK AO2 T02230205
KDZB 241335Z AUTO 14003KT 10SM BKN012 OVC035 22/21 A2987 RMK AO2 T02210205
KDZB 241315Z AUTO 00000KT 10SM SCT011 SCT017 OVC035 22/21 A2986 RMK AO2 T02200205
KDZB 241255Z AUTO 00000KT 10SM BKN017 OVC035 22/20 A2985 RMK AO2 T02200202
KDZB 241235Z AUTO 00000KT 10SM BKN015 OVC036 22/20 A2985 RMK AO2 T02200202
KDZB 241215Z AUTO 15003KT 10SM BKN015 BKN020 OVC036 22/20 A2985 RMK AO2 T02200201
KDZB 241155Z AUTO 16005KT 10SM BKN013 OVC018 22/20 A2986 RMK AO2 T02200202 10220 20205
KDZB 241135Z AUTO 16004KT 10SM BKN013 OVC017 22/20 A2985 RMK AO2 T02190200
KDZB 241115Z AUTO 16004KT 10SM OVC011 22/20 A2984 RMK AO2 T02200196
KDZB 241055Z AUTO 17004KT 10SM OVC011 22/20 A2984 RMK AO2 T02200196
KDZB 241035Z AUTO 16004KT 10SM OVC011 22/19 A2984 RMK AO2 T02180193